sensor_id;sensor_type;location;lat;lon;timestamp;P1;durP1;ratioP1;P2;durP2;ratioP2
14472;SDS011;7322;50.872;4.386;2023-11-19T00:00:53;0.80;;;0.70;;
14472;SDS011;7322;50.872;4.386;2023-11-19T00:03:20;0.80;;;0.60;;
14472;SDS011;7322;50.872;4.386;2023-11-19T00:05:47;0.70;;;0.60;;
14472;SDS011;7322;50.872;4.386;2023-11-19T00:08:17;0.80;;;0.60;;
14472;SDS011;7322;50.872;4.386;2023-11-19T00:10:44;0.60;;;0.60;;
14472;SDS011;7322;50.872;4.386;2023-11-19T00:13:11;0.60;;;0.60;;
14472;SDS011;7322;50.872;4.386;2023-11-19T00:15:38;1.00;;;0.77;;
14472;SDS011;7322;50.872;4.386;2023-11-19T00:18:05;0.80;;;0.70;;
14472;SDS011;7322;50.872;4.386;2023-11-19T00:20:33;0.87;;;0.70;;
14472;SDS011;7322;50.872;4.386;2023-11-19T00:23:00;0.70;;;0.70;;
14472;SDS011;7322;50.872;4.386;2023-11-19T00:25:29;0.70;;;0.70;;
14472;SDS011;7322;50.872;4.386;2023-11-19T00:27:56;0.60;;;0.60;;
14472;SDS011;7322;50.872;4.386;2023-11-19T00:30:23;0.70;;;0.70;;
14472;SDS011;7322;50.872;4.386;2023-11-19T00:32:50;0.60;;;0.60;;
14472;SDS011;7322;50.872;4.386;2023-11-19T00:35:17;0.70;;;0.70;;
14472;SDS011;7322;50.872;4.386;2023-11-19T00:37:44;0.80;;;0.70;;
14472;SDS011;7322;50.872;4.386;2023-11-19T00:40:12;0.80;;;0.70;;
14472;SDS011;7322;50.872;4.386;2023-11-19T00:42:42;0.70;;;0.70;;
14472;SDS011;7322;50.872;4.386;2023-11-19T00:45:09;1.23;;;0.80;;
14472;SDS011;7322;50.872;4.386;2023-11-19T00:47:38;0.90;;;0.63;;
14472;SDS011;7322;50.872;4.386;2023-11-19T00:50:05;0.70;;;0.70;;
14472;SDS011;7322;50.872;4.386;2023-11-19T00:52:34;0.60;;;0.50;;
14472;SDS011;7322;50.872;4.386;2023-11-19T00:55:03;0.60;;;0.60;;
14472;SDS011;7322;50.872;4.386;2023-11-19T00:57:31;0.63;;;0.50;;
14472;SDS011;7322;50.872;4.386;2023-11-19T01:00:00;0.80;;;0.70;;
14472;SDS011;7322;50.872;4.386;2023-11-19T01:02:29;0.97;;;0.67;;
14472;SDS011;7322;50.872;4.386;2023-11-19T01:04:56;0.80;;;0.73;;
14472;SDS011;7322;50.872;4.386;2023-11-19T01:07:23;0.77;;;0.70;;
14472;SDS011;7322;50.872;4.386;2023-11-19T01:09:51;1.00;;;0.70;;
14472;SDS011;7322;50.872;4.386;2023-11-19T01:12:19;0.80;;;0.70;;
14472;SDS011;7322;50.872;4.386;2023-11-19T01:14:46;0.87;;;0.60;;
14472;SDS011;7322;50.872;4.386;2023-11-19T01:17:14;0.83;;;0.70;;
14472;SDS011;7322;50.872;4.386;2023-11-19T01:19:42;0.77;;;0.60;;
14472;SDS011;7322;50.872;4.386;2023-11-19T01:22:10;0.50;;;0.50;;
14472;SDS011;7322;50.872;4.386;2023-11-19T01:24:37;0.87;;;0.70;;
14472;SDS011;7322;50.872;4.386;2023-11-19T01:27:04;0.70;;;0.70;;
14472;SDS011;7322;50.872;4.386;2023-11-19T01:29:32;0.50;;;0.50;;
14472;SDS011;7322;50.872;4.386;2023-11-19T01:31:59;0.97;;;0.70;;
14472;SDS011;7322;50.872;4.386;2023-11-19T01:34:27;0.73;;;0.60;;
14472;SDS011;7322;50.872;4.386;2023-11-19T01:36:54;0.70;;;0.70;;
14472;SDS011;7322;50.872;4.386;2023-11-19T01:39:21;0.47;;;0.40;;
14472;SDS011;7322;50.872;4.386;2023-11-19T01:41:49;1.00;;;0.60;;
14472;SDS011;7322;50.872;4.386;2023-11-19T01:44:17;0.60;;;0.57;;
14472;SDS011;7322;50.872;4.386;2023-11-19T01:46:44;0.50;;;0.50;;
14472;SDS011;7322;50.872;4.386;2023-11-19T01:49:14;1.03;;;0.77;;
14472;SDS011;7322;50.872;4.386;2023-11-19T01:51:43;1.07;;;0.63;;
14472;SDS011;7322;50.872;4.386;2023-11-19T01:54:10;0.73;;;0.60;;
14472;SDS011;7322;50.872;4.386;2023-11-19T01:56:40;0.60;;;0.60;;
14472;SDS011;7322;50.872;4.386;2023-11-19T01:59:08;0.73;;;0.50;;
14472;SDS011;7322;50.872;4.386;2023-11-19T02:01:39;0.70;;;0.70;;
14472;SDS011;7322;50.872;4.386;2023-11-19T02:04:07;0.73;;;0.67;;
14472;SDS011;7322;50.872;4.386;2023-11-19T02:06:35;0.60;;;0.60;;
14472;SDS011;7322;50.872;4.386;2023-11-19T02:09:05;0.70;;;0.70;;
14472;SDS011;7322;50.872;4.386;2023-11-19T02:11:33;0.97;;;0.77;;
14472;SDS011;7322;50.872;4.386;2023-11-19T02:14:00;0.57;;;0.57;;
14472;SDS011;7322;50.872;4.386;2023-11-19T02:16:28;1.00;;;0.50;;
14472;SDS011;7322;50.872;4.386;2023-11-19T02:18:55;0.50;;;0.50;;
14472;SDS011;7322;50.872;4.386;2023-11-19T02:21:22;0.57;;;0.50;;
14472;SDS011;7322;50.872;4.386;2023-11-19T02:23:49;0.60;;;0.60;;
14472;SDS011;7322;50.872;4.386;2023-11-19T02:26:21;1.60;;;0.80;;
14472;SDS011;7322;50.872;4.386;2023-11-19T02:28:58;1.07;;;0.60;;
14472;SDS011;7322;50.872;4.386;2023-11-19T02:31:26;0.50;;;0.50;;
14472;SDS011;7322;50.872;4.386;2023-11-19T02:33:53;0.50;;;0.50;;
14472;SDS011;7322;50.872;4.386;2023-11-19T02:36:25;0.57;;;0.50;;
14472;SDS011;7322;50.872;4.386;2023-11-19T02:38:52;0.70;;;0.60;;
14472;SDS011;7322;50.872;4.386;2023-11-19T02:41:21;0.80;;;0.63;;
14472;SDS011;7322;50.872;4.386;2023-11-19T02:43:50;0.80;;;0.60;;
14472;SDS011;7322;50.872;4.386;2023-11-19T02:46:19;0.77;;;0.70;;
14472;SDS011;7322;50.872;4.386;2023-11-19T02:48:46;0.57;;;0.50;;
14472;SDS011;7322;50.872;4.386;2023-11-19T02:51:13;0.40;;;0.40;;
14472;SDS011;7322;50.872;4.386;2023-11-19T02:53:40;0.60;;;0.60;;
14472;SDS011;7322;50.872;4.386;2023-11-19T02:56:09;0.70;;;0.60;;
14472;SDS011;7322;50.872;4.386;2023-11-19T02:58:44;0.50;;;0.50;;
14472;SDS011;7322;50.872;4.386;2023-11-19T03:01:13;0.60;;;0.60;;
14472;SDS011;7322;50.872;4.386;2023-11-19T03:03:50;0.80;;;0.60;;
14472;SDS011;7322;50.872;4.386;2023-11-19T03:06:19;0.70;;;0.57;;
14472;SDS011;7322;50.872;4.386;2023-11-19T03:08:48;0.60;;;0.60;;
14472;SDS011;7322;50.872;4.386;2023-11-19T03:11:15;1.07;;;0.50;;
14472;SDS011;7322;50.872;4.386;2023-11-19T03:13:42;1.10;;;0.60;;
14472;SDS011;7322;50.872;4.386;2023-11-19T03:16:09;0.60;;;0.60;;
14472;SDS011;7322;50.872;4.386;2023-11-19T03:18:37;0.50;;;0.50;;
14472;SDS011;7322;50.872;4.386;2023-11-19T03:21:06;0.60;;;0.60;;
14472;SDS011;7322;50.872;4.386;2023-11-19T03:23:34;0.60;;;0.53;;
14472;SDS011;7322;50.872;4.386;2023-11-19T03:26:01;0.60;;;0.60;;
14472;SDS011;7322;50.872;4.386;2023-11-19T03:28:30;0.70;;;0.53;;
14472;SDS011;7322;50.872;4.386;2023-11-19T03:30:57;0.77;;;0.70;;
14472;SDS011;7322;50.872;4.386;2023-11-19T03:33:24;1.20;;;0.57;;
14472;SDS011;7322;50.872;4.386;2023-11-19T03:35:52;0.57;;;0.53;;
14472;SDS011;7322;50.872;4.386;2023-11-19T03:38:22;0.80;;;0.70;;
14472;SDS011;7322;50.872;4.386;2023-11-19T03:40:56;0.80;;;0.60;;
14472;SDS011;7322;50.872;4.386;2023-11-19T03:43:24;0.63;;;0.57;;
14472;SDS011;7322;50.872;4.386;2023-11-19T03:45:53;0.60;;;0.60;;
14472;SDS011;7322;50.872;4.386;2023-11-19T03:48:20;0.60;;;0.60;;
14472;SDS011;7322;50.872;4.386;2023-11-19T03:50:47;1.00;;;0.63;;
14472;SDS011;7322;50.872;4.386;2023-11-19T03:53:14;0.60;;;0.60;;
14472;SDS011;7322;50.872;4.386;2023-11-19T03:55:43;0.40;;;0.40;;
14472;SDS011;7322;50.872;4.386;2023-11-19T03:58:10;0.77;;;0.50;;
14472;SDS011;7322;50.872;4.386;2023-11-19T04:00:38;0.67;;;0.60;;
14472;SDS011;7322;50.872;4.386;2023-11-19T04:03:07;0.60;;;0.50;;
14472;SDS011;7322;50.872;4.386;2023-11-19T04:05:35;1.60;;;0.70;;
14472;SDS011;7322;50.872;4.386;2023-11-19T04:08:02;0.50;;;0.50;;
14472;SDS011;7322;50.872;4.386;2023-11-19T04:10:29;0.40;;;0.40;;
14472;SDS011;7322;50.872;4.386;2023-11-19T04:12:57;1.10;;;0.67;;
14472;SDS011;7322;50.872;4.386;2023-11-19T04:15:24;0.63;;;0.60;;
14472;SDS011;7322;50.872;4.386;2023-11-19T04:17:52;1.07;;;0.70;;
14472;SDS011;7322;50.872;4.386;2023-11-19T04:20:19;0.60;;;0.60;;
14472;SDS011;7322;50.872;4.386;2023-11-19T04:22:46;0.70;;;0.50;;
14472;SDS011;7322;50.872;4.386;2023-11-19T04:25:13;1.03;;;0.53;;
14472;SDS011;7322;50.872;4.386;2023-11-19T04:27:40;1.07;;;0.50;;
14472;SDS011;7322;50.872;4.386;2023-11-19T04:30:08;0.93;;;0.60;;
14472;SDS011;7322;50.872;4.386;2023-11-19T04:35:07;0.70;;;0.70;;
14472;SDS011;7322;50.872;4.386;2023-11-19T04:37:35;0.60;;;0.60;;
14472;SDS011;7322;50.872;4.386;2023-11-19T04:40:03;0.50;;;0.50;;
14472;SDS011;7322;50.872;4.386;2023-11-19T04:42:30;1.17;;;0.60;;
14472;SDS011;7322;50.872;4.386;2023-11-19T04:44:59;1.23;;;0.50;;
14472;SDS011;7322;50.872;4.386;2023-11-19T04:47:27;0.83;;;0.60;;
14472;SDS011;7322;50.872;4.386;2023-11-19T04:49:54;1.27;;;0.70;;
14472;SDS011;7322;50.872;4.386;2023-11-19T04:52:21;0.73;;;0.40;;
14472;SDS011;7322;50.872;4.386;2023-11-19T04:54:48;0.80;;;0.60;;
14472;SDS011;7322;50.872;4.386;2023-11-19T04:57:16;0.70;;;0.70;;
14472;SDS011;7322;50.872;4.386;2023-11-19T04:59:43;0.50;;;0.50;;
14472;SDS011;7322;50.872;4.386;2023-11-19T05:02:12;1.07;;;0.63;;
14472;SDS011;7322;50.872;4.386;2023-11-19T05:04:43;1.33;;;0.77;;
14472;SDS011;7322;50.872;4.386;2023-11-19T05:07:12;0.70;;;0.70;;
14472;SDS011;7322;50.872;4.386;2023-11-19T05:09:39;0.60;;;0.60;;
14472;SDS011;7322;50.872;4.386;2023-11-19T05:12:06;0.70;;;0.60;;
14472;SDS011;7322;50.872;4.386;2023-11-19T05:14:39;0.57;;;0.57;;
14472;SDS011;7322;50.872;4.386;2023-11-19T05:17:06;0.53;;;0.50;;
14472;SDS011;7322;50.872;4.386;2023-11-19T05:19:34;1.63;;;0.90;;
14472;SDS011;7322;50.872;4.386;2023-11-19T05:22:02;0.83;;;0.73;;
14472;SDS011;7322;50.872;4.386;2023-11-19T05:24:31;0.93;;;0.70;;
14472;SDS011;7322;50.872;4.386;2023-11-19T05:26:59;0.73;;;0.63;;
14472;SDS011;7322;50.872;4.386;2023-11-19T05:29:26;0.60;;;0.60;;
14472;SDS011;7322;50.872;4.386;2023-11-19T05:31:54;1.00;;;0.60;;
14472;SDS011;7322;50.872;4.386;2023-11-19T05:34:21;0.73;;;0.60;;
14472;SDS011;7322;50.872;4.386;2023-11-19T05:36:51;0.60;;;0.60;;
14472;SDS011;7322;50.872;4.386;2023-11-19T05:39:19;1.40;;;0.90;;
14472;SDS011;7322;50.872;4.386;2023-11-19T05:41:47;1.07;;;0.70;;
14472;SDS011;7322;50.872;4.386;2023-11-19T05:44:13;0.90;;;0.60;;
14472;SDS011;7322;50.872;4.386;2023-11-19T05:46:41;0.83;;;0.47;;
14472;SDS011;7322;50.872;4.386;2023-11-19T05:49:09;0.77;;;0.60;;
14472;SDS011;7322;50.872;4.386;2023-11-19T05:51:36;2.53;;;0.80;;
14472;SDS011;7322;50.872;4.386;2023-11-19T05:54:06;0.60;;;0.60;;
14472;SDS011;7322;50.872;4.386;2023-11-19T05:56:38;0.67;;;0.67;;
14472;SDS011;7322;50.872;4.386;2023-11-19T05:59:06;0.67;;;0.57;;
14472;SDS011;7322;50.872;4.386;2023-11-19T06:01:40;0.90;;;0.67;;
14472;SDS011;7322;50.872;4.386;2023-11-19T06:04:08;1.40;;;0.60;;
14472;SDS011;7322;50.872;4.386;2023-11-19T06:06:36;0.80;;;0.70;;
14472;SDS011;7322;50.872;4.386;2023-11-19T06:09:03;1.60;;;0.70;;
14472;SDS011;7322;50.872;4.386;2023-11-19T06:11:31;0.93;;;0.63;;
14472;SDS011;7322;50.872;4.386;2023-11-19T06:14:00;0.67;;;0.60;;
14472;SDS011;7322;50.872;4.386;2023-11-19T06:16:27;1.10;;;0.77;;
14472;SDS011;7322;50.872;4.386;2023-11-19T06:18:54;1.17;;;0.60;;
14472;SDS011;7322;50.872;4.386;2023-11-19T06:21:21;0.90;;;0.60;;
14472;SDS011;7322;50.872;4.386;2023-11-19T06:23:48;1.03;;;0.80;;
14472;SDS011;7322;50.872;4.386;2023-11-19T06:26:17;1.33;;;0.60;;
14472;SDS011;7322;50.872;4.386;2023-11-19T06:28:44;1.40;;;0.80;;
14472;SDS011;7322;50.872;4.386;2023-11-19T06:31:13;1.33;;;0.70;;
14472;SDS011;7322;50.872;4.386;2023-11-19T06:33:41;0.97;;;0.60;;
14472;SDS011;7322;50.872;4.386;2023-11-19T06:36:08;1.00;;;0.60;;
14472;SDS011;7322;50.872;4.386;2023-11-19T06:38:35;1.00;;;0.80;;
14472;SDS011;7322;50.872;4.386;2023-11-19T06:41:07;0.80;;;0.70;;
14472;SDS011;7322;50.872;4.386;2023-11-19T06:43:35;1.93;;;1.20;;
14472;SDS011;7322;50.872;4.386;2023-11-19T06:46:02;1.80;;;0.60;;
14472;SDS011;7322;50.872;4.386;2023-11-19T06:48:44;1.20;;;0.80;;
14472;SDS011;7322;50.872;4.386;2023-11-19T06:51:11;0.97;;;0.67;;
14472;SDS011;7322;50.872;4.386;2023-11-19T06:53:38;1.30;;;0.73;;
14472;SDS011;7322;50.872;4.386;2023-11-19T06:58:54;1.10;;;0.70;;
14472;SDS011;7322;50.872;4.386;2023-11-19T07:04:17;1.67;;;0.80;;
14472;SDS011;7322;50.872;4.386;2023-11-19T07:06:44;1.53;;;0.60;;
14472;SDS011;7322;50.872;4.386;2023-11-19T07:09:11;1.00;;;0.67;;
14472;SDS011;7322;50.872;4.386;2023-11-19T07:11:39;0.93;;;0.60;;
14472;SDS011;7322;50.872;4.386;2023-11-19T07:14:06;1.37;;;0.70;;
14472;SDS011;7322;50.872;4.386;2023-11-19T07:16:34;0.80;;;0.53;;
14472;SDS011;7322;50.872;4.386;2023-11-19T07:19:02;0.90;;;0.70;;
14472;SDS011;7322;50.872;4.386;2023-11-19T07:21:31;0.80;;;0.70;;
14472;SDS011;7322;50.872;4.386;2023-11-19T07:24:00;0.50;;;0.50;;
14472;SDS011;7322;50.872;4.386;2023-11-19T07:26:28;1.47;;;0.60;;
14472;SDS011;7322;50.872;4.386;2023-11-19T07:28:55;1.43;;;0.70;;
14472;SDS011;7322;50.872;4.386;2023-11-19T07:31:23;0.97;;;0.60;;
14472;SDS011;7322;50.872;4.386;2023-11-19T07:33:50;1.23;;;0.90;;
14472;SDS011;7322;50.872;4.386;2023-11-19T07:36:18;1.40;;;0.70;;
14472;SDS011;7322;50.872;4.386;2023-11-19T07:38:46;1.33;;;0.70;;
14472;SDS011;7322;50.872;4.386;2023-11-19T07:41:12;1.00;;;0.70;;
14472;SDS011;7322;50.872;4.386;2023-11-19T07:43:39;0.97;;;0.70;;
14472;SDS011;7322;50.872;4.386;2023-11-19T07:46:10;1.77;;;0.90;;
14472;SDS011;7322;50.872;4.386;2023-11-19T07:48:38;1.00;;;0.67;;
14472;SDS011;7322;50.872;4.386;2023-11-19T07:51:07;0.80;;;0.70;;
14472;SDS011;7322;50.872;4.386;2023-11-19T07:59:50;0.87;;;0.57;;
14472;SDS011;7322;50.872;4.386;2023-11-19T08:02:17;2.73;;;1.00;;
14472;SDS011;7322;50.872;4.386;2023-11-19T08:04:44;1.97;;;0.90;;
14472;SDS011;7322;50.872;4.386;2023-11-19T08:07:11;0.90;;;0.60;;
14472;SDS011;7322;50.872;4.386;2023-11-19T08:09:51;1.60;;;0.70;;
14472;SDS011;7322;50.872;4.386;2023-11-19T08:12:20;1.60;;;0.80;;
14472;SDS011;7322;50.872;4.386;2023-11-19T08:14:49;1.10;;;0.80;;
14472;SDS011;7322;50.872;4.386;2023-11-19T08:17:16;1.67;;;0.90;;
14472;SDS011;7322;50.872;4.386;2023-11-19T08:19:43;1.77;;;0.90;;
14472;SDS011;7322;50.872;4.386;2023-11-19T08:22:10;1.30;;;0.80;;
14472;SDS011;7322;50.872;4.386;2023-11-19T08:24:37;3.37;;;0.97;;
14472;SDS011;7322;50.872;4.386;2023-11-19T08:27:04;0.70;;;0.60;;
14472;SDS011;7322;50.872;4.386;2023-11-19T08:29:33;1.60;;;0.90;;
14472;SDS011;7322;50.872;4.386;2023-11-19T08:32:00;1.10;;;0.73;;
14472;SDS011;7322;50.872;4.386;2023-11-19T08:34:28;1.90;;;0.80;;
14472;SDS011;7322;50.872;4.386;2023-11-19T08:36:57;2.20;;;1.10;;
14472;SDS011;7322;50.872;4.386;2023-11-19T08:39:25;2.13;;;0.80;;
14472;SDS011;7322;50.872;4.386;2023-11-19T08:41:52;1.17;;;0.80;;
14472;SDS011;7322;50.872;4.386;2023-11-19T08:44:20;0.57;;;0.53;;
14472;SDS011;7322;50.872;4.386;2023-11-19T08:46:49;1.47;;;0.80;;
14472;SDS011;7322;50.872;4.386;2023-11-19T08:49:16;1.30;;;0.70;;
14472;SDS011;7322;50.872;4.386;2023-11-19T08:51:43;1.23;;;0.80;;
14472;SDS011;7322;50.872;4.386;2023-11-19T08:54:10;1.03;;;0.80;;
14472;SDS011;7322;50.872;4.386;2023-11-19T08:56:39;1.87;;;0.70;;
14472;SDS011;7322;50.872;4.386;2023-11-19T08:59:06;1.07;;;0.70;;
14472;SDS011;7322;50.872;4.386;2023-11-19T09:01:33;1.43;;;0.83;;
14472;SDS011;7322;50.872;4.386;2023-11-19T09:04:02;1.70;;;0.60;;
14472;SDS011;7322;50.872;4.386;2023-11-19T09:06:31;1.33;;;0.80;;
14472;SDS011;7322;50.872;4.386;2023-11-19T09:08:58;1.23;;;0.70;;
14472;SDS011;7322;50.872;4.386;2023-11-19T09:11:28;1.67;;;0.90;;
14472;SDS011;7322;50.872;4.386;2023-11-19T09:14:00;1.73;;;0.90;;
14472;SDS011;7322;50.872;4.386;2023-11-19T09:19:54;1.07;;;0.77;;
14472;SDS011;7322;50.872;4.386;2023-11-19T09:22:21;2.00;;;0.97;;
14472;SDS011;7322;50.872;4.386;2023-11-19T09:25:04;2.37;;;1.00;;
14472;SDS011;7322;50.872;4.386;2023-11-19T09:27:48;1.40;;;0.77;;
14472;SDS011;7322;50.872;4.386;2023-11-19T09:30:30;2.07;;;1.00;;
14472;SDS011;7322;50.872;4.386;2023-11-19T09:33:11;1.40;;;0.73;;
14472;SDS011;7322;50.872;4.386;2023-11-19T09:35:42;1.03;;;0.73;;
14472;SDS011;7322;50.872;4.386;2023-11-19T09:38:22;1.90;;;0.83;;
14472;SDS011;7322;50.872;4.386;2023-11-19T09:41:06;1.90;;;1.00;;
14472;SDS011;7322;50.872;4.386;2023-11-19T09:43:38;2.43;;;0.90;;
14472;SDS011;7322;50.872;4.386;2023-11-19T09:46:46;0.87;;;0.60;;
14472;SDS011;7322;50.872;4.386;2023-11-19T09:49:28;1.73;;;0.80;;
14472;SDS011;7322;50.872;4.386;2023-11-19T09:55:22;1.43;;;0.77;;
14472;SDS011;7322;50.872;4.386;2023-11-19T09:58:09;1.47;;;0.70;;
14472;SDS011;7322;50.872;4.386;2023-11-19T10:00:59;1.90;;;0.83;;
14472;SDS011;7322;50.872;4.386;2023-11-19T10:03:34;1.63;;;0.80;;
14472;SDS011;7322;50.872;4.386;2023-11-19T10:06:37;2.57;;;0.93;;
14472;SDS011;7322;50.872;4.386;2023-11-19T10:09:11;2.07;;;0.83;;
14472;SDS011;7322;50.872;4.386;2023-11-19T10:11:43;1.00;;;0.70;;
14472;SDS011;7322;50.872;4.386;2023-11-19T10:14:14;2.50;;;0.90;;
14472;SDS011;7322;50.872;4.386;2023-11-19T10:16:44;1.33;;;0.73;;
14472;SDS011;7322;50.872;4.386;2023-11-19T10:19:26;1.60;;;0.90;;
14472;SDS011;7322;50.872;4.386;2023-11-19T10:22:18;2.90;;;1.03;;
14472;SDS011;7322;50.872;4.386;2023-11-19T10:24:54;2.60;;;0.80;;
14472;SDS011;7322;50.872;4.386;2023-11-19T10:27:24;2.10;;;0.97;;
14472;SDS011;7322;50.872;4.386;2023-11-19T10:29:54;1.67;;;0.80;;
14472;SDS011;7322;50.872;4.386;2023-11-19T10:32:35;2.17;;;0.80;;
14472;SDS011;7322;50.872;4.386;2023-11-19T10:35:05;2.10;;;0.97;;
14472;SDS011;7322;50.872;4.386;2023-11-19T10:37:41;1.17;;;0.83;;
14472;SDS011;7322;50.872;4.386;2023-11-19T10:40:14;2.23;;;1.00;;
14472;SDS011;7322;50.872;4.386;2023-11-19T10:43:06;1.83;;;0.80;;
14472;SDS011;7322;50.872;4.386;2023-11-19T10:45:51;1.73;;;0.97;;
14472;SDS011;7322;50.872;4.386;2023-11-19T10:48:21;1.57;;;0.80;;
14472;SDS011;7322;50.872;4.386;2023-11-19T10:50:57;2.90;;;0.93;;
14472;SDS011;7322;50.872;4.386;2023-11-19T10:53:25;1.93;;;0.90;;
14472;SDS011;7322;50.872;4.386;2023-11-19T10:56:05;1.17;;;0.80;;
14472;SDS011;7322;50.872;4.386;2023-11-19T10:58:51;2.20;;;0.90;;
14472;SDS011;7322;50.872;4.386;2023-11-19T11:01:39;2.07;;;0.80;;
14472;SDS011;7322;50.872;4.386;2023-11-19T11:04:29;1.17;;;0.77;;
14472;SDS011;7322;50.872;4.386;2023-11-19T11:07:02;1.93;;;0.83;;
14472;SDS011;7322;50.872;4.386;2023-11-19T11:09:32;2.40;;;0.90;;
14472;SDS011;7322;50.872;4.386;2023-11-19T11:12:09;1.17;;;0.70;;
14472;SDS011;7322;50.872;4.386;2023-11-19T11:14:46;2.70;;;1.17;;
14472;SDS011;7322;50.872;4.386;2023-11-19T11:17:17;3.30;;;1.20;;
14472;SDS011;7322;50.872;4.386;2023-11-19T11:19:56;1.43;;;0.90;;
14472;SDS011;7322;50.872;4.386;2023-11-19T11:22:34;1.73;;;0.87;;
14472;SDS011;7322;50.872;4.386;2023-11-19T11:25:34;1.47;;;0.90;;
14472;SDS011;7322;50.872;4.386;2023-11-19T11:28:37;1.57;;;0.87;;
14472;SDS011;7322;50.872;4.386;2023-11-19T11:34:19;1.83;;;0.90;;
14472;SDS011;7322;50.872;4.386;2023-11-19T11:37:21;2.73;;;0.90;;
14472;SDS011;7322;50.872;4.386;2023-11-19T11:40:01;2.20;;;1.10;;
14472;SDS011;7322;50.872;4.386;2023-11-19T11:45:21;1.30;;;0.90;;
14472;SDS011;7322;50.872;4.386;2023-11-19T11:48:12;1.93;;;1.00;;
14472;SDS011;7322;50.872;4.386;2023-11-19T11:50:51;1.07;;;0.80;;
14472;SDS011;7322;50.872;4.386;2023-11-19T11:53:51;1.87;;;0.80;;
14472;SDS011;7322;50.872;4.386;2023-11-19T11:56:32;1.67;;;0.80;;
14472;SDS011;7322;50.872;4.386;2023-11-19T11:59:07;1.40;;;0.87;;
14472;SDS011;7322;50.872;4.386;2023-11-19T12:01:36;2.07;;;1.07;;
14472;SDS011;7322;50.872;4.386;2023-11-19T12:07:02;2.53;;;0.90;;
14472;SDS011;7322;50.872;4.386;2023-11-19T12:09:32;1.20;;;0.80;;
14472;SDS011;7322;50.872;4.386;2023-11-19T12:18:05;1.93;;;1.10;;
14472;SDS011;7322;50.872;4.386;2023-11-19T12:27:06;2.53;;;1.13;;
14472;SDS011;7322;50.872;4.386;2023-11-19T12:29:41;1.63;;;0.87;;
14472;SDS011;7322;50.872;4.386;2023-11-19T12:32:09;3.63;;;1.03;;
14472;SDS011;7322;50.872;4.386;2023-11-19T12:34:38;1.67;;;0.80;;
14472;SDS011;7322;50.872;4.386;2023-11-19T12:37:24;1.80;;;0.80;;
14472;SDS011;7322;50.872;4.386;2023-11-19T12:39:51;2.97;;;1.10;;
14472;SDS011;7322;50.872;4.386;2023-11-19T12:42:19;2.30;;;1.00;;
14472;SDS011;7322;50.872;4.386;2023-11-19T12:45:01;2.90;;;0.93;;
14472;SDS011;7322;50.872;4.386;2023-11-19T12:47:29;2.27;;;0.90;;
14472;SDS011;7322;50.872;4.386;2023-11-19T12:49:58;2.43;;;1.00;;
14472;SDS011;7322;50.872;4.386;2023-11-19T12:52:25;3.20;;;1.10;;
14472;SDS011;7322;50.872;4.386;2023-11-19T12:54:52;4.33;;;1.53;;
14472;SDS011;7322;50.872;4.386;2023-11-19T12:57:19;3.93;;;1.60;;
14472;SDS011;7322;50.872;4.386;2023-11-19T12:59:56;4.93;;;1.57;;
14472;SDS011;7322;50.872;4.386;2023-11-19T13:02:23;10.63;;;1.70;;
14472;SDS011;7322;50.872;4.386;2023-11-19T13:05:24;7.97;;;1.90;;
14472;SDS011;7322;50.872;4.386;2023-11-19T13:08:02;12.10;;;2.00;;
14472;SDS011;7322;50.872;4.386;2023-11-19T13:10:30;12.27;;;2.60;;
14472;SDS011;7322;50.872;4.386;2023-11-19T13:13:04;14.13;;;2.97;;
14472;SDS011;7322;50.872;4.386;2023-11-19T13:15:33;13.37;;;2.60;;
14472;SDS011;7322;50.872;4.386;2023-11-19T13:18:00;9.47;;;2.73;;
14472;SDS011;7322;50.872;4.386;2023-11-19T13:20:45;11.23;;;3.03;;
14472;SDS011;7322;50.872;4.386;2023-11-19T13:23:12;11.90;;;3.00;;
14472;SDS011;7322;50.872;4.386;2023-11-19T13:28:45;10.60;;;2.83;;
14472;SDS011;7322;50.872;4.386;2023-11-19T13:31:17;10.53;;;3.17;;
14472;SDS011;7322;50.872;4.386;2023-11-19T13:33:44;14.20;;;3.07;;
14472;SDS011;7322;50.872;4.386;2023-11-19T13:36:14;16.50;;;2.77;;
14472;SDS011;7322;50.872;4.386;2023-11-19T13:38:42;11.83;;;2.77;;
14472;SDS011;7322;50.872;4.386;2023-11-19T13:41:10;8.50;;;3.03;;
14472;SDS011;7322;50.872;4.386;2023-11-19T13:46:33;12.23;;;2.70;;
14472;SDS011;7322;50.872;4.386;2023-11-19T13:49:00;12.20;;;2.50;;
14472;SDS011;7322;50.872;4.386;2023-11-19T13:51:30;11.07;;;3.30;;
14472;SDS011;7322;50.872;4.386;2023-11-19T13:54:04;12.13;;;2.80;;
14472;SDS011;7322;50.872;4.386;2023-11-19T13:56:32;17.60;;;3.00;;
14472;SDS011;7322;50.872;4.386;2023-11-19T13:59:01;9.60;;;3.13;;
14472;SDS011;7322;50.872;4.386;2023-11-19T14:01:28;10.70;;;2.40;;
14472;SDS011;7322;50.872;4.386;2023-11-19T14:03:56;9.90;;;2.83;;
14472;SDS011;7322;50.872;4.386;2023-11-19T14:06:23;16.57;;;3.37;;
14472;SDS011;7322;50.872;4.386;2023-11-19T14:08:52;14.83;;;3.00;;
14472;SDS011;7322;50.872;4.386;2023-11-19T14:11:28;12.10;;;3.00;;
14472;SDS011;7322;50.872;4.386;2023-11-19T14:13:55;13.47;;;2.87;;
14472;SDS011;7322;50.872;4.386;2023-11-19T14:16:26;8.43;;;2.50;;
14472;SDS011;7322;50.872;4.386;2023-11-19T14:18:53;9.80;;;2.80;;
14472;SDS011;7322;50.872;4.386;2023-11-19T14:21:20;6.47;;;2.57;;
14472;SDS011;7322;50.872;4.386;2023-11-19T14:23:47;12.30;;;2.90;;
14472;SDS011;7322;50.872;4.386;2023-11-19T14:26:15;9.53;;;3.30;;
14472;SDS011;7322;50.872;4.386;2023-11-19T14:28:42;7.57;;;2.40;;
14472;SDS011;7322;50.872;4.386;2023-11-19T14:31:09;10.53;;;2.67;;
14472;SDS011;7322;50.872;4.386;2023-11-19T14:33:36;9.63;;;2.70;;
14472;SDS011;7322;50.872;4.386;2023-11-19T14:36:03;12.77;;;3.10;;
14472;SDS011;7322;50.872;4.386;2023-11-19T14:38:32;11.93;;;2.83;;
14472;SDS011;7322;50.872;4.386;2023-11-19T14:40:59;10.23;;;3.00;;
14472;SDS011;7322;50.872;4.386;2023-11-19T14:43:27;12.37;;;3.30;;
14472;SDS011;7322;50.872;4.386;2023-11-19T14:45:54;8.70;;;2.63;;
14472;SDS011;7322;50.872;4.386;2023-11-19T14:48:21;11.50;;;2.70;;
14472;SDS011;7322;50.872;4.386;2023-11-19T14:50:50;10.40;;;3.10;;
14472;SDS011;7322;50.872;4.386;2023-11-19T14:53:19;8.50;;;2.70;;
14472;SDS011;7322;50.872;4.386;2023-11-19T14:55:56;17.27;;;3.10;;
14472;SDS011;7322;50.872;4.386;2023-11-19T14:58:31;14.87;;;3.20;;
14472;SDS011;7322;50.872;4.386;2023-11-19T15:01:00;13.07;;;3.13;;
14472;SDS011;7322;50.872;4.386;2023-11-19T15:03:29;10.00;;;3.13;;
14472;SDS011;7322;50.872;4.386;2023-11-19T15:06:12;12.03;;;2.97;;
14472;SDS011;7322;50.872;4.386;2023-11-19T15:08:51;8.27;;;2.67;;
14472;SDS011;7322;50.872;4.386;2023-11-19T15:11:20;11.63;;;3.03;;
14472;SDS011;7322;50.872;4.386;2023-11-19T15:13:57;8.73;;;2.63;;
14472;SDS011;7322;50.872;4.386;2023-11-19T15:16:25;9.70;;;2.97;;
14472;SDS011;7322;50.872;4.386;2023-11-19T15:18:56;10.33;;;2.93;;
14472;SDS011;7322;50.872;4.386;2023-11-19T15:21:25;11.57;;;2.80;;
14472;SDS011;7322;50.872;4.386;2023-11-19T15:23:52;8.60;;;2.77;;
14472;SDS011;7322;50.872;4.386;2023-11-19T15:26:19;9.63;;;2.30;;
14472;SDS011;7322;50.872;4.386;2023-11-19T15:28:46;9.07;;;2.40;;
14472;SDS011;7322;50.872;4.386;2023-11-19T15:31:15;6.80;;;2.40;;
14472;SDS011;7322;50.872;4.386;2023-11-19T15:33:42;11.67;;;2.57;;
14472;SDS011;7322;50.872;4.386;2023-11-19T15:36:09;10.13;;;2.50;;
14472;SDS011;7322;50.872;4.386;2023-11-19T15:38:37;7.93;;;2.60;;
14472;SDS011;7322;50.872;4.386;2023-11-19T15:46:39;7.17;;;2.50;;
14472;SDS011;7322;50.872;4.386;2023-11-19T15:51:49;8.23;;;2.53;;
14472;SDS011;7322;50.872;4.386;2023-11-19T15:54:22;5.87;;;2.30;;
14472;SDS011;7322;50.872;4.386;2023-11-19T15:56:56;7.73;;;2.43;;
14472;SDS011;7322;50.872;4.386;2023-11-19T16:13:28;7.80;;;2.70;;
14472;SDS011;7322;50.872;4.386;2023-11-19T16:18:50;7.53;;;2.40;;
14472;SDS011;7322;50.872;4.386;2023-11-19T16:24:57;6.63;;;2.00;;
14472;SDS011;7322;50.872;4.386;2023-11-19T16:27:26;8.67;;;2.80;;
14472;SDS011;7322;50.872;4.386;2023-11-19T16:30:05;7.03;;;2.27;;
14472;SDS011;7322;50.872;4.386;2023-11-19T16:35:21;9.77;;;2.60;;
14472;SDS011;7322;50.872;4.386;2023-11-19T16:37:52;8.20;;;2.43;;
14472;SDS011;7322;50.872;4.386;2023-11-19T16:40:20;6.90;;;2.50;;